createdAt,value
2023-02-03T00:01:50.320Z,4.90
2023-02-03T00:04:17.387Z,5.00
2023-02-03T00:06:44.412Z,5.30
2023-02-03T00:09:11.293Z,5.20
2023-02-03T00:11:38.209Z,5.00
2023-02-03T00:14:05.399Z,5.00
2023-02-03T00:16:32.359Z,5.10
2023-02-03T00:18:59.427Z,5.10
2023-02-03T00:21:26.391Z,5.00
2023-02-03T00:23:54.528Z,5.10
2023-02-03T00:26:21.375Z,5.10
2023-02-03T00:28:48.317Z,5.20
2023-02-03T00:31:23.215Z,5.40
2023-02-03T00:33:57.363Z,5.40
2023-02-03T00:36:25.415Z,5.10
2023-02-03T00:38:52.492Z,5.20
2023-02-03T00:41:20.232Z,5.30
2023-02-03T00:43:47.628Z,5.30
2023-02-03T00:46:14.675Z,5.30
2023-02-03T00:48:41.458Z,5.50
2023-02-03T00:51:08.153Z,5.50
2023-02-03T00:53:34.902Z,5.60
2023-02-03T00:56:01.788Z,5.60
2023-02-03T00:58:28.610Z,5.70
2023-02-03T01:00:57.957Z,5.60
2023-02-03T01:03:25.270Z,5.60
2023-02-03T01:05:52.099Z,5.50
2023-02-03T01:08:19.585Z,5.40
2023-02-03T01:10:46.366Z,5.30
2023-02-03T01:13:13.421Z,5.50
2023-02-03T01:15:47.352Z,5.50
2023-02-03T01:18:14.387Z,5.50
2023-02-03T01:20:41.102Z,5.60
2023-02-03T01:23:07.757Z,5.50
2023-02-03T01:25:35.854Z,5.40
2023-02-03T01:28:02.641Z,5.40
2023-02-03T01:30:29.657Z,5.50
2023-02-03T01:32:56.787Z,5.60
2023-02-03T01:35:23.488Z,5.80
2023-02-03T01:37:50.099Z,5.80
2023-02-03T01:40:16.854Z,5.70
2023-02-03T01:42:43.568Z,5.60
2023-02-03T01:45:13.378Z,5.50
2023-02-03T01:47:48.420Z,5.40
2023-02-03T01:50:22.472Z,5.40
2023-02-03T01:52:57.198Z,5.30
2023-02-03T01:55:28.014Z,5.20
2023-02-03T01:58:10.739Z,5.30
2023-02-03T02:00:37.483Z,5.30
2023-02-03T02:03:05.797Z,5.20
2023-02-03T02:05:38.089Z,5.30
2023-02-03T02:08:06.526Z,5.20
2023-02-03T02:10:35.026Z,5.00
2023-02-03T02:13:03.546Z,5.00
2023-02-03T02:16:12.959Z,4.90
2023-02-03T02:19:05.124Z,4.90
2023-02-03T02:22:01.095Z,4.90
2023-02-03T02:24:52.853Z,4.70
2023-02-03T02:27:42.338Z,4.70
2023-02-03T02:30:28.606Z,4.80
2023-02-03T02:33:11.549Z,5.00
2023-02-03T02:35:58.701Z,5.00
2023-02-03T02:38:34.551Z,4.90
2023-02-03T02:41:10.261Z,4.70
2023-02-03T02:44:15.228Z,4.80
2023-02-03T02:46:50.434Z,4.70
2023-02-03T02:49:25.517Z,4.70
2023-02-03T02:51:53.750Z,4.70
2023-02-03T02:54:23.731Z,4.70
2023-02-03T02:56:56.563Z,4.80
2023-02-03T02:59:24.007Z,4.90
2023-02-03T03:01:51.474Z,5.00
2023-02-03T03:04:25.527Z,4.90
2023-02-03T03:07:25.286Z,5.00
2023-02-03T03:09:57.840Z,4.70
2023-02-03T03:12:36.148Z,4.60
2023-02-03T03:15:11.091Z,4.70
2023-02-03T03:17:42.447Z,4.70
2023-02-03T03:20:16.219Z,4.60
2023-02-03T03:22:48.950Z,4.60
2023-02-03T03:25:24.589Z,4.60
2023-02-03T03:27:56.953Z,4.60
2023-02-03T03:30:28.502Z,4.70
2023-02-03T03:32:55.963Z,5.00
2023-02-03T03:35:24.984Z,5.20
2023-02-03T03:37:59.813Z,5.20
2023-02-03T03:40:39.335Z,5.10
2023-02-03T03:43:13.333Z,5.00
2023-02-03T03:45:57.781Z,5.10
2023-02-03T03:48:36.764Z,5.10
2023-02-03T03:51:13.096Z,5.00
2023-02-03T03:53:42.829Z,5.00
2023-02-03T03:56:14.864Z,5.00
2023-02-03T03:58:45.301Z,5.00
2023-02-03T04:01:14.355Z,4.90
2023-02-03T04:03:46.272Z,4.80
2023-02-03T04:06:13.493Z,4.80
2023-02-03T04:08:40.143Z,4.60
2023-02-03T04:11:07.642Z,4.70
2023-02-03T04:13:34.407Z,4.70
2023-02-03T04:16:01.164Z,4.70
2023-02-03T04:18:28.126Z,4.80
2023-02-03T04:20:54.741Z,4.90
2023-02-03T04:23:21.388Z,4.80
2023-02-03T04:25:48.030Z,4.70
2023-02-03T04:28:14.739Z,4.80
2023-02-03T04:30:41.496Z,4.60
2023-02-03T04:33:08.182Z,4.50
2023-02-03T04:35:34.850Z,4.50
2023-02-03T04:38:01.494Z,4.30
2023-02-03T04:40:28.425Z,4.20
2023-02-03T04:42:55.305Z,4.20
2023-02-03T04:45:21.919Z,4.30
2023-02-03T04:47:54.229Z,4.40
2023-02-03T04:50:21.601Z,4.50
2023-02-03T04:52:48.314Z,4.40
2023-02-03T04:55:14.998Z,4.20
2023-02-03T04:57:41.668Z,4.20
2023-02-03T05:00:09.049Z,4.30
2023-02-03T05:02:35.754Z,4.10
2023-02-03T05:05:02.533Z,4.20
2023-02-03T05:07:29.185Z,4.30
2023-02-03T05:09:55.938Z,4.30
2023-02-03T05:12:22.720Z,4.40
2023-02-03T05:14:49.414Z,4.30
2023-02-03T05:17:16.128Z,4.20
2023-02-03T05:19:42.910Z,4.20
2023-02-03T05:22:09.651Z,4.20
2023-02-03T05:24:36.434Z,4.40
2023-02-03T05:27:04.588Z,4.40
2023-02-03T05:29:31.423Z,4.40
2023-02-03T05:31:58.205Z,4.50
2023-02-03T05:34:25.513Z,4.40
2023-02-03T05:36:52.402Z,4.30
2023-02-03T05:39:19.185Z,4.20
2023-02-03T05:41:57.250Z,4.30
2023-02-03T05:44:28.916Z,4.50
2023-02-03T05:46:58.385Z,4.70
2023-02-03T05:49:25.892Z,4.80
2023-02-03T05:51:54.238Z,4.90
2023-02-03T05:54:21.274Z,4.70
2023-02-03T05:56:48.224Z,4.50
2023-02-03T05:59:14.994Z,4.60
2023-02-03T06:01:41.795Z,4.70
2023-02-03T06:04:08.546Z,4.70
2023-02-03T06:06:35.417Z,4.80
2023-02-03T06:09:04.923Z,4.70
2023-02-03T06:11:35.824Z,4.60
2023-02-03T06:14:04.411Z,4.40
2023-02-03T06:16:31.209Z,4.30
2023-02-03T06:19:02.415Z,4.20
2023-02-03T06:21:29.207Z,4.20
2023-02-03T06:23:56.522Z,4.00
2023-02-03T06:26:23.615Z,4.00
2023-02-03T06:28:50.318Z,4.10
2023-02-03T06:31:17.110Z,4.20
2023-02-03T06:33:44.252Z,4.30
2023-02-03T06:36:11.176Z,4.40
2023-02-03T06:38:37.968Z,4.40
2023-02-03T06:41:04.782Z,4.50
2023-02-03T06:43:31.620Z,4.50
2023-02-03T06:45:58.377Z,4.50
2023-02-03T06:48:25.670Z,4.60
2023-02-03T06:50:52.333Z,4.70
2023-02-03T06:53:19.363Z,4.70
2023-02-03T06:55:47.934Z,4.40
2023-02-03T06:58:16.048Z,4.20
2023-02-03T07:00:42.879Z,4.30
2023-02-03T07:03:10.603Z,4.50
2023-02-03T07:05:37.949Z,4.50
2023-02-03T07:08:05.361Z,4.40
2023-02-03T07:10:32.589Z,4.40
2023-02-03T07:13:06.907Z,4.30
2023-02-03T07:15:34.362Z,4.40
2023-02-03T07:18:01.259Z,4.40
2023-02-03T07:20:29.281Z,4.60
2023-02-03T07:22:57.630Z,4.50
2023-02-03T07:25:25.097Z,4.60
2023-02-03T07:27:51.877Z,4.70
2023-02-03T07:30:19.107Z,4.60
2023-02-03T07:32:50.607Z,4.40
2023-02-03T07:35:18.750Z,4.40
2023-02-03T07:37:46.012Z,4.30
2023-02-03T07:40:13.842Z,4.50
2023-02-03T07:42:45.388Z,4.80
2023-02-03T07:45:14.333Z,4.80
2023-02-03T07:47:42.784Z,4.70
2023-02-03T07:50:10.981Z,4.60
2023-02-03T07:52:38.281Z,4.50
2023-02-03T07:55:05.116Z,4.50
2023-02-03T07:57:31.741Z,4.40
2023-02-03T07:59:58.408Z,4.60
2023-02-03T08:02:25.114Z,4.50
2023-02-03T08:04:51.848Z,4.40
2023-02-03T08:07:18.551Z,4.40
2023-02-03T08:09:45.191Z,4.60
2023-02-03T08:12:11.888Z,4.70
2023-02-03T08:14:38.505Z,4.70
2023-02-03T08:17:05.244Z,4.70
2023-02-03T08:19:31.983Z,4.70
2023-02-03T08:21:59.574Z,4.70
2023-02-03T08:24:26.238Z,4.60
2023-02-03T08:26:54.252Z,4.40
2023-02-03T08:29:21.054Z,4.50
2023-02-03T08:31:47.907Z,4.40
2023-02-03T08:34:14.654Z,4.30
2023-02-03T08:36:41.372Z,4.30
2023-02-03T08:39:08.010Z,4.40
2023-02-03T08:41:34.761Z,4.40
2023-02-03T08:44:01.899Z,4.20
2023-02-03T08:46:28.604Z,4.40
2023-02-03T08:48:57.038Z,4.50
2023-02-03T08:51:24.610Z,4.50
2023-02-03T08:53:51.899Z,4.60
2023-02-03T08:56:18.840Z,4.50
2023-02-03T08:58:45.586Z,4.70
2023-02-03T09:01:15.000Z,4.90
2023-02-03T09:03:42.114Z,4.90
2023-02-03T09:06:11.639Z,5.00
2023-02-03T09:08:38.613Z,4.90
2023-02-03T09:11:10.164Z,4.90
2023-02-03T09:13:38.001Z,4.90
2023-02-03T09:16:07.482Z,4.80
2023-02-03T09:18:34.347Z,4.90
2023-02-03T09:21:02.608Z,4.70
2023-02-03T09:23:29.588Z,4.60
2023-02-03T09:25:56.756Z,4.50
2023-02-03T09:28:23.491Z,4.30
2023-02-03T09:30:50.142Z,4.30
2023-02-03T09:33:16.799Z,4.30
2023-02-03T09:35:52.352Z,4.20
2023-02-03T09:38:19.529Z,4.20
2023-02-03T09:40:55.466Z,4.40
2023-02-03T09:44:04.703Z,4.40
2023-02-03T09:46:41.630Z,4.50
2023-02-03T09:49:32.843Z,4.60
2023-02-03T09:52:05.708Z,4.70
2023-02-03T09:54:32.343Z,4.60
2023-02-03T09:57:00.818Z,4.60
2023-02-03T09:59:32.974Z,4.80
2023-02-03T10:02:21.517Z,4.70
2023-02-03T10:05:01.324Z,4.50
2023-02-03T10:07:28.320Z,4.50
2023-02-03T10:10:20.603Z,4.40
2023-02-03T10:13:02.269Z,4.50
2023-02-03T10:15:38.645Z,4.70
2023-02-03T10:18:12.710Z,4.60
2023-02-03T10:20:43.467Z,4.60
2023-02-03T10:23:26.730Z,4.70
2023-02-03T10:25:57.265Z,4.70
2023-02-03T10:28:29.932Z,4.90
2023-02-03T10:31:07.140Z,5.00
2023-02-03T10:33:34.426Z,5.10
2023-02-03T10:36:22.050Z,4.80
2023-02-03T10:39:03.056Z,4.80
2023-02-03T10:41:30.978Z,4.90
2023-02-03T10:44:00.107Z,4.90
2023-02-03T10:46:30.725Z,5.00
2023-02-03T10:48:57.899Z,5.00
2023-02-03T10:51:31.762Z,5.00
2023-02-03T10:54:00.124Z,4.90
2023-02-03T10:56:32.105Z,4.90
2023-02-03T10:59:00.688Z,4.70
2023-02-03T11:01:42.259Z,4.60
2023-02-03T11:04:29.865Z,4.60
2023-02-03T11:07:01.743Z,4.50
2023-02-03T11:09:35.128Z,4.50
2023-02-03T11:12:12.132Z,4.70
2023-02-03T11:14:44.293Z,4.70
2023-02-03T11:17:20.136Z,4.60
2023-02-03T11:19:48.375Z,4.60
2023-02-03T11:22:32.373Z,4.80
2023-02-03T11:24:59.942Z,4.70
2023-02-03T11:27:30.672Z,4.70
2023-02-03T11:30:27.634Z,4.60
2023-02-03T11:32:55.629Z,4.60
2023-02-03T11:35:26.265Z,4.40
2023-02-03T11:37:55.172Z,4.70
2023-02-03T11:40:27.102Z,4.90
2023-02-03T11:42:56.946Z,5.00
2023-02-03T11:45:29.064Z,5.00
2023-02-03T11:48:11.485Z,5.00
2023-02-03T11:50:55.324Z,5.10
2023-02-03T11:53:47.875Z,5.00
2023-02-03T11:56:52.267Z,4.90
2023-02-03T11:59:25.785Z,5.00
2023-02-03T12:02:07.264Z,5.10
2023-02-03T12:05:03.167Z,5.30
2023-02-03T12:07:50.694Z,5.40
2023-02-03T12:10:48.617Z,5.10
2023-02-03T12:13:50.783Z,5.10
2023-02-03T12:16:18.598Z,4.90
2023-02-03T12:19:06.802Z,5.10
2023-02-03T12:22:01.148Z,5.00
2023-02-03T12:24:49.891Z,4.80
2023-02-03T12:27:48.417Z,5.00
2023-02-03T12:30:52.115Z,5.10
2023-02-03T12:33:30.819Z,5.10
2023-02-03T12:36:21.101Z,5.20
2023-02-03T12:38:57.765Z,5.30
2023-02-03T12:41:39.802Z,5.50
2023-02-03T12:44:21.849Z,5.60
2023-02-03T12:47:14.913Z,5.40
2023-02-03T12:49:57.080Z,5.20
2023-02-03T12:52:38.776Z,5.10
2023-02-03T12:55:21.795Z,5.20
2023-02-03T12:57:54.998Z,5.30
2023-02-03T13:00:34.981Z,5.50
2023-02-03T13:03:25.060Z,5.60
2023-02-03T13:05:58.805Z,5.50
2023-02-03T13:08:32.680Z,5.40
2023-02-03T13:11:38.234Z,5.30
2023-02-03T13:14:22.835Z,5.30
2023-02-03T13:17:02.942Z,5.10
2023-02-03T13:19:37.877Z,4.90
2023-02-03T13:22:12.231Z,4.90
2023-02-03T13:24:43.692Z,4.90
2023-02-03T13:27:41.304Z,5.10
2023-02-03T13:30:32.614Z,5.10
2023-02-03T13:33:17.950Z,5.20
2023-02-03T13:36:06.563Z,5.40
2023-02-03T13:38:51.620Z,5.40
2023-02-03T13:41:28.577Z,5.40
2023-02-03T13:43:57.810Z,5.50
2023-02-03T13:46:29.162Z,5.60
2023-02-03T13:48:59.819Z,5.50
2023-02-03T13:51:34.762Z,5.40
2023-02-03T13:54:07.672Z,5.40
2023-02-03T13:56:35.427Z,5.60
2023-02-03T13:59:32.918Z,5.70
2023-02-03T14:02:21.445Z,5.80
2023-02-03T14:04:48.157Z,5.90
2023-02-03T14:07:24.765Z,5.80
2023-02-03T14:10:13.276Z,5.90
2023-02-03T14:12:52.099Z,5.90
2023-02-03T14:15:31.956Z,5.60
2023-02-03T14:18:21.143Z,5.70
2023-02-03T14:20:53.767Z,5.60
2023-02-03T14:23:27.025Z,5.50
2023-02-03T14:26:00.008Z,5.70
2023-02-03T14:28:40.985Z,5.60
2023-02-03T14:31:13.015Z,5.60
2023-02-03T14:33:53.791Z,5.60
2023-02-03T14:36:27.999Z,5.70
2023-02-03T14:39:01.518Z,5.80
2023-02-03T14:41:34.039Z,5.80
2023-02-03T14:44:28.813Z,5.90
2023-02-03T14:47:18.404Z,5.80
2023-02-03T14:50:04.136Z,5.80
2023-02-03T14:52:53.638Z,5.60
2023-02-03T14:55:49.382Z,5.50
2023-02-03T14:58:26.890Z,5.50
2023-02-03T15:00:54.970Z,5.60
2023-02-03T15:03:26.379Z,5.60
2023-02-03T15:06:02.479Z,5.30
2023-02-03T15:08:48.031Z,5.20
2023-02-03T15:11:44.522Z,5.30
2023-02-03T15:14:23.740Z,5.30
2023-02-03T15:17:01.994Z,5.30
2023-02-03T15:19:33.950Z,5.40
2023-02-03T15:22:01.617Z,5.30
2023-02-03T15:24:39.597Z,5.30
2023-02-03T15:27:24.636Z,5.30
2023-02-03T15:29:51.696Z,5.30
2023-02-03T15:32:37.269Z,5.40
2023-02-03T15:35:08.605Z,5.50
2023-02-03T15:37:50.223Z,5.30
2023-02-03T15:40:21.675Z,5.30
2023-02-03T15:43:01.356Z,5.20
2023-02-03T15:45:41.824Z,5.30
2023-02-03T15:48:34.210Z,5.50
2023-02-03T15:51:13.306Z,5.70
2023-02-03T15:53:49.116Z,5.90
2023-02-03T15:56:30.449Z,5.80
2023-02-03T15:58:58.746Z,5.70
2023-02-03T16:01:26.688Z,5.70
2023-02-03T16:03:55.898Z,5.60
2023-02-03T16:06:25.635Z,5.60
2023-02-03T16:08:52.595Z,5.70
2023-02-03T16:11:24.371Z,5.70
2023-02-03T16:13:51.530Z,5.70
2023-02-03T16:16:55.198Z,5.50
2023-02-03T16:19:34.087Z,5.30
2023-02-03T16:22:00.839Z,5.50
2023-02-03T16:24:40.828Z,5.30
2023-02-03T16:27:30.567Z,5.30
2023-02-03T16:30:24.921Z,5.50
2023-02-03T16:33:28.245Z,5.50
2023-02-03T16:36:15.381Z,5.60
2023-02-03T16:39:08.471Z,5.80
2023-02-03T16:41:55.176Z,5.90
2023-02-03T16:44:40.675Z,5.90
2023-02-03T16:47:49.630Z,6.00
2023-02-03T16:50:38.977Z,6.00
2023-02-03T16:53:12.424Z,6.20
2023-02-03T16:55:39.098Z,6.40
2023-02-03T16:58:05.792Z,6.60
2023-02-03T17:00:32.618Z,6.50
2023-02-03T17:03:02.908Z,6.20
2023-02-03T17:05:29.809Z,6.20
2023-02-03T17:07:56.652Z,6.20
2023-02-03T17:10:23.567Z,6.40
2023-02-03T17:12:52.760Z,6.60
2023-02-03T17:15:19.394Z,6.70
2023-02-03T17:17:46.881Z,6.50
2023-02-03T17:20:13.567Z,6.20
2023-02-03T17:22:40.289Z,6.00
2023-02-03T17:25:07.682Z,6.10
2023-02-03T17:27:34.363Z,6.10
2023-02-03T17:30:01.253Z,6.00
2023-02-03T17:32:28.168Z,5.80
2023-02-03T17:34:54.810Z,6.00
2023-02-03T17:37:21.504Z,6.10
2023-02-03T17:53:32.679Z,6.60
2023-02-03T17:56:24.503Z,6.60
2023-02-03T17:58:59.486Z,6.70
2023-02-03T18:01:27.125Z,6.70
2023-02-03T18:03:57.167Z,6.80
2023-02-03T18:06:26.396Z,6.70
2023-02-03T18:08:54.238Z,6.60
2023-02-03T18:11:21.123Z,6.60
2023-02-03T18:13:49.604Z,6.50
2023-02-03T18:16:22.795Z,6.80
2023-02-03T18:18:51.832Z,6.90
2023-02-03T18:21:20.747Z,6.90
2023-02-03T18:23:49.500Z,6.70
2023-02-03T18:26:16.914Z,6.60
2023-02-03T18:28:43.978Z,6.60
2023-02-03T18:31:15.303Z,6.50
2023-02-03T18:33:43.672Z,6.20
2023-02-03T18:36:12.642Z,6.10
2023-02-03T18:38:41.077Z,6.20
2023-02-03T18:41:17.938Z,6.10
2023-02-03T18:43:45.656Z,6.10
2023-02-03T18:46:27.353Z,6.10
2023-02-03T18:48:56.052Z,6.20
2023-02-03T18:51:24.253Z,6.00
2023-02-03T18:53:51.556Z,6.10
2023-02-03T18:56:21.179Z,6.20
2023-02-03T18:58:48.604Z,6.40
2023-02-03T19:01:29.445Z,6.30
2023-02-03T19:04:01.510Z,6.40
2023-02-03T19:06:30.427Z,6.50
2023-02-03T19:08:58.747Z,6.60
2023-02-03T19:11:25.750Z,6.70
2023-02-03T19:13:52.660Z,6.60
2023-02-03T19:16:19.600Z,6.60
2023-02-03T19:18:46.519Z,6.70
2023-02-03T19:21:15.230Z,6.60
2023-02-03T19:23:42.789Z,6.70
2023-02-03T19:26:10.451Z,6.60
2023-02-03T19:28:37.743Z,6.60
2023-02-03T19:31:10.839Z,6.50
2023-02-03T19:33:38.044Z,6.60
2023-02-03T19:36:08.436Z,6.50
2023-02-03T19:38:38.822Z,6.40
2023-02-03T19:41:07.096Z,6.20
2023-02-03T19:43:34.110Z,6.30
2023-02-03T19:46:04.180Z,6.40
2023-02-03T19:48:34.070Z,6.40
2023-02-03T19:51:01.168Z,6.60
2023-02-03T19:53:31.225Z,6.50
2023-02-03T19:56:01.535Z,6.30
2023-02-03T19:58:31.249Z,6.40
2023-02-03T20:00:58.503Z,6.30
2023-02-03T20:03:31.322Z,6.30
2023-02-03T20:06:01.279Z,6.20
2023-02-03T20:08:31.245Z,6.10
2023-02-03T20:11:02.433Z,6.20
2023-02-03T20:13:29.235Z,6.10
2023-02-03T20:15:55.923Z,6.30
2023-02-03T20:18:22.766Z,6.40
2023-02-03T20:20:51.577Z,6.40
2023-02-03T20:23:18.216Z,6.50
2023-02-03T20:25:47.858Z,6.50
2023-02-03T20:28:14.540Z,6.60
2023-02-03T20:30:41.585Z,6.60
2023-02-03T20:33:08.295Z,6.50
2023-02-03T20:35:35.117Z,6.40
2023-02-03T20:38:01.881Z,6.20
2023-02-03T20:40:29.671Z,6.20
2023-02-03T20:42:56.761Z,6.20
2023-02-03T20:45:24.652Z,6.50
2023-02-03T20:47:51.909Z,6.50
2023-02-03T20:50:23.622Z,6.60
2023-02-03T20:52:52.593Z,6.60
2023-02-03T20:55:21.819Z,6.50
2023-02-03T20:57:51.247Z,6.40
2023-02-03T21:00:24.136Z,6.20
2023-02-03T21:03:09.843Z,6.20
2023-02-03T21:05:38.723Z,6.40
2023-02-03T21:08:26.431Z,6.60
2023-02-03T21:10:53.427Z,6.90
2023-02-03T21:13:23.051Z,6.90
2023-02-03T21:16:20.359Z,7.00
2023-02-03T21:18:55.403Z,6.80
2023-02-03T21:21:42.679Z,6.70
2023-02-03T21:24:29.954Z,6.70
2023-02-03T21:26:57.899Z,6.80
2023-02-03T21:29:36.665Z,6.80
2023-02-03T21:32:04.082Z,6.70
2023-02-03T21:34:35.619Z,6.60
2023-02-03T21:37:26.634Z,6.60
2023-02-03T21:39:53.274Z,6.70
2023-02-03T21:42:40.758Z,6.90
2023-02-03T21:45:16.923Z,7.00
2023-02-03T21:47:45.066Z,6.80
2023-02-03T21:50:34.918Z,6.80
2023-02-03T21:53:10.520Z,7.00
2023-02-03T21:55:38.513Z,7.20
2023-02-03T21:58:28.780Z,7.40
2023-02-03T22:00:57.469Z,7.50
2023-02-03T22:03:35.604Z,7.30
2023-02-03T22:06:15.982Z,7.10
2023-02-03T22:08:45.513Z,7.30
2023-02-03T22:11:13.458Z,7.30
2023-02-03T22:13:40.511Z,7.30
2023-02-03T22:16:07.457Z,7.30
2023-02-03T22:18:34.600Z,7.30
2023-02-03T22:21:02.132Z,7.30
2023-02-03T22:23:29.666Z,7.60
2023-02-03T22:25:56.356Z,7.80
2023-02-03T22:28:23.025Z,7.80
2023-02-03T22:30:50.044Z,7.60
2023-02-03T22:33:20.106Z,7.60
2023-02-03T22:35:46.826Z,7.80
2023-02-03T22:38:13.499Z,7.80
2023-02-03T22:40:40.274Z,7.80
2023-02-03T22:43:06.931Z,7.80
2023-02-03T22:45:33.671Z,7.90
2023-02-03T22:48:00.670Z,7.90
2023-02-03T22:50:35.520Z,8.00
2023-02-03T22:53:04.214Z,7.90
2023-02-03T22:55:31.779Z,7.90
2023-02-03T22:57:59.150Z,7.90
2023-02-03T23:00:26.529Z,8.00
2023-02-03T23:02:54.034Z,7.90
2023-02-03T23:05:21.522Z,7.90
2023-02-03T23:07:49.032Z,8.00
2023-02-03T23:10:22.087Z,7.80
2023-02-03T23:12:49.309Z,7.80
2023-02-03T23:15:17.904Z,7.70
2023-02-03T23:17:45.205Z,7.90
2023-02-03T23:20:14.161Z,7.80
2023-02-03T23:22:40.887Z,8.00
2023-02-03T23:25:08.133Z,7.90
2023-02-03T23:27:34.916Z,7.90
2023-02-03T23:30:02.465Z,8.00
2023-02-03T23:32:29.135Z,7.90
2023-02-03T23:35:14.808Z,7.90
2023-02-03T23:37:41.463Z,7.80
2023-02-03T23:40:09.563Z,7.70
2023-02-03T23:42:36.256Z,7.60
2023-02-03T23:45:07.871Z,7.70
2023-02-03T23:47:35.918Z,7.80
2023-02-03T23:50:02.760Z,7.70
2023-02-03T23:52:35.513Z,7.60
2023-02-03T23:55:12.583Z,7.90
2023-02-03T23:57:42.434Z,7.80
